createdAt,value
2019-05-03T00:02:12.192Z,19.80
2019-05-03T00:04:42.368Z,21.15
2019-05-03T00:07:11.819Z,21.80
2019-05-03T00:09:42.496Z,19.37
2019-05-03T00:12:12.668Z,19.30
2019-05-03T00:14:43.254Z,21.25
2019-05-03T00:17:12.282Z,19.62
2019-05-03T00:19:42.258Z,21.37
2019-05-03T00:22:12.418Z,20.40
2019-05-03T00:24:42.644Z,24.02
2019-05-03T00:27:12.546Z,19.42
2019-05-03T00:29:41.808Z,20.60
2019-05-03T00:32:12.323Z,20.50
2019-05-03T00:34:42.090Z,18.30
2019-05-03T00:37:14.872Z,19.67
2019-05-03T00:40:01.992Z,20.43
2019-05-03T00:42:31.743Z,19.92
2019-05-03T00:45:02.134Z,20.97
2019-05-03T00:47:30.430Z,19.55
2019-05-03T00:49:58.880Z,20.77
2019-05-03T00:52:27.317Z,21.33
2019-05-03T00:54:55.756Z,20.77
2019-05-03T00:57:24.212Z,20.25
2019-05-03T00:59:52.918Z,20.88
2019-05-03T01:02:22.328Z,23.18
2019-05-03T01:04:51.817Z,20.02
2019-05-03T01:07:22.116Z,21.23
2019-05-03T01:09:51.775Z,21.73
2019-05-03T01:12:21.965Z,21.35
2019-05-03T01:14:52.138Z,20.17
2019-05-03T01:17:22.284Z,21.12
2019-05-03T01:19:52.172Z,25.23
2019-05-03T01:22:22.436Z,21.37
2019-05-03T01:24:51.857Z,24.30
2019-05-03T01:27:22.030Z,20.62
2019-05-03T01:29:51.975Z,24.27
2019-05-03T01:32:22.275Z,24.70
2019-05-03T01:34:52.331Z,25.82
2019-05-03T01:37:22.711Z,22.13
2019-05-03T01:39:52.597Z,18.17
2019-05-03T01:42:22.618Z,18.10
2019-05-03T01:44:52.220Z,22.75
2019-05-03T01:47:47.805Z,21.42
2019-05-03T01:50:26.682Z,19.40
2019-05-03T01:52:56.826Z,19.80
2019-05-03T01:55:26.928Z,20.37
2019-05-03T01:57:55.387Z,25.68
2019-05-03T02:00:25.453Z,20.72
2019-05-03T02:03:01.904Z,19.60
2019-05-03T02:05:45.044Z,19.48
2019-05-03T02:08:14.492Z,19.30
2019-05-03T02:11:03.958Z,21.82
2019-05-03T02:13:32.430Z,21.20
2019-05-03T02:16:07.339Z,20.15
2019-05-03T02:18:35.819Z,21.62
2019-05-03T02:21:04.258Z,23.05
2019-05-03T02:23:32.721Z,23.00
2019-05-03T02:26:02.923Z,22.25
2019-05-03T02:28:32.663Z,19.00
2019-05-03T02:31:03.573Z,23.95
2019-05-03T02:33:32.922Z,19.30
2019-05-03T02:36:03.734Z,19.17
2019-05-03T02:38:33.802Z,19.62
2019-05-03T02:41:04.879Z,23.02
2019-05-03T02:43:36.469Z,19.48
2019-05-03T02:46:12.678Z,20.90
2019-05-03T02:48:48.974Z,23.20
2019-05-03T02:51:17.406Z,23.50
2019-05-03T02:53:45.968Z,19.35
2019-05-03T02:56:21.875Z,20.88
2019-05-03T02:58:46.049Z,24.50
2019-05-03T03:01:16.225Z,23.55
2019-05-03T03:03:45.758Z,23.30
2019-05-03T03:06:15.751Z,27.62
2019-05-03T03:08:45.509Z,23.55
2019-05-03T03:11:15.572Z,22.00
2019-05-03T03:13:45.783Z,23.27
2019-05-03T03:16:16.261Z,21.55
2019-05-03T03:18:45.639Z,20.10
2019-05-03T03:21:16.362Z,22.73
2019-05-03T03:24:06.315Z,21.50
2019-05-03T03:26:41.456Z,23.60
2019-05-03T03:29:07.383Z,20.95
2019-05-03T03:31:39.079Z,21.95
2019-05-03T03:34:11.022Z,23.40
2019-05-03T03:37:00.709Z,25.32
2019-05-03T03:39:22.146Z,24.87
2019-05-03T03:41:55.555Z,28.62
2019-05-03T03:44:25.706Z,35.03
2019-05-03T03:46:56.220Z,30.57
2019-05-03T03:49:26.205Z,38.42
2019-05-03T03:51:56.365Z,37.95
2019-05-03T03:54:26.025Z,36.10
2019-05-03T03:57:03.262Z,30.40
2019-05-03T03:59:27.435Z,33.05
2019-05-03T04:01:56.493Z,28.83
2019-05-03T04:04:26.339Z,29.10
2019-05-03T04:07:00.539Z,26.77
2019-05-03T04:09:27.120Z,25.95
2019-05-03T04:11:57.037Z,24.85
2019-05-03T04:14:36.201Z,25.52
2019-05-03T04:17:06.108Z,24.35
2019-05-03T04:19:39.446Z,24.63
2019-05-03T04:22:09.145Z,30.23
2019-05-03T04:24:38.168Z,25.90
2019-05-03T04:27:18.607Z,28.15
2019-05-03T04:29:38.179Z,31.73
2019-05-03T04:32:08.977Z,31.23
2019-05-03T04:34:38.327Z,26.68
2019-05-03T04:37:07.194Z,28.90
2019-05-03T04:39:36.296Z,29.80
2019-05-03T04:42:07.145Z,26.93
2019-05-03T04:44:36.795Z,29.95
2019-05-03T04:47:06.738Z,29.23
2019-05-03T04:49:37.876Z,28.02
2019-05-03T04:52:06.876Z,25.50
2019-05-03T04:54:40.080Z,28.83
2019-05-03T04:57:09.152Z,25.75
2019-05-03T04:59:38.129Z,26.05
2019-05-03T05:02:07.141Z,26.10
2019-05-03T05:04:36.035Z,26.48
2019-05-03T05:07:06.259Z,27.95
2019-05-03T05:09:35.316Z,22.50
2019-05-03T05:12:05.913Z,15.08
2019-05-03T05:14:35.379Z,12.63
2019-05-03T05:17:06.351Z,14.45
2019-05-03T05:19:36.923Z,12.50
2019-05-03T05:22:07.458Z,12.15
2019-05-03T05:24:36.445Z,12.45
2019-05-03T05:27:07.040Z,10.80
2019-05-03T05:29:37.595Z,7.60
2019-05-03T05:32:06.492Z,10.43
2019-05-03T05:34:36.374Z,10.93
2019-05-03T05:37:05.468Z,9.38
2019-05-03T05:39:35.608Z,11.40
2019-05-03T05:42:05.285Z,9.35
2019-05-03T05:44:35.199Z,7.15
2019-05-03T05:47:28.164Z,8.63
2019-05-03T05:49:58.441Z,9.53
2019-05-03T05:52:27.209Z,13.18
2019-05-03T05:55:15.878Z,9.00
2019-05-03T05:58:01.253Z,9.18
2019-05-03T06:00:26.965Z,9.88
2019-05-03T06:02:55.656Z,9.13
2019-05-03T06:05:25.269Z,9.25
2019-05-03T06:08:15.097Z,9.88
2019-05-03T06:10:46.885Z,10.88
2019-05-03T06:13:26.459Z,9.95
2019-05-03T06:15:57.306Z,12.75
2019-05-03T06:18:27.536Z,12.23
2019-05-03T06:21:04.624Z,9.10
2019-05-03T06:23:45.118Z,7.50
2019-05-03T06:26:32.118Z,11.15
2019-05-03T06:29:04.612Z,8.20
2019-05-03T06:31:51.981Z,9.93
2019-05-03T06:34:20.838Z,12.25
2019-05-03T06:36:51.601Z,11.00
2019-05-03T06:39:24.774Z,8.43
2019-05-03T06:41:52.562Z,7.03
2019-05-03T06:44:24.781Z,8.68
2019-05-03T06:46:52.669Z,9.55
2019-05-03T06:49:21.483Z,8.03
2019-05-03T06:51:50.091Z,8.90
2019-05-03T06:54:20.785Z,16.42
2019-05-03T06:56:49.548Z,11.55
2019-05-03T06:59:19.944Z,12.35
2019-05-03T07:01:52.738Z,15.08
2019-05-03T07:04:24.560Z,15.75
2019-05-03T07:06:57.446Z,13.50
2019-05-03T07:09:29.291Z,8.30
2019-05-03T07:11:58.145Z,15.08
2019-05-03T07:14:26.990Z,8.93
2019-05-03T07:17:17.397Z,10.20
2019-05-03T07:19:46.497Z,8.90
2019-05-03T07:22:15.401Z,9.15
2019-05-03T07:24:45.581Z,5.70
2019-05-03T07:27:17.733Z,5.78
2019-05-03T07:29:46.793Z,5.85
2019-05-03T07:32:16.364Z,5.05
2019-05-03T07:34:45.425Z,9.78
2019-05-03T07:37:14.570Z,6.10
2019-05-03T07:39:45.248Z,7.08
2019-05-03T07:42:15.676Z,5.72
2019-05-03T07:44:45.019Z,4.28
2019-05-03T07:47:14.853Z,6.03
2019-05-03T07:49:44.756Z,4.05
2019-05-03T07:52:14.779Z,2.70
2019-05-03T07:54:45.147Z,5.15
2019-05-03T07:57:32.627Z,4.67
2019-05-03T08:00:01.083Z,2.58
2019-05-03T08:03:28.581Z,3.25
2019-05-03T08:05:57.025Z,3.20
2019-05-03T08:08:25.467Z,3.95
2019-05-03T08:10:59.192Z,4.12
2019-05-03T08:16:54.827Z,5.67
2019-05-03T08:19:26.726Z,3.17
2019-05-03T08:21:56.446Z,3.15
2019-05-03T08:24:25.353Z,4.25
2019-05-03T08:26:55.569Z,4.55
2019-05-03T08:29:24.868Z,3.62
2019-05-03T08:31:58.369Z,3.52
2019-05-03T08:34:31.219Z,2.47
2019-05-03T08:37:01.286Z,4.53
2019-05-03T08:39:29.752Z,2.22
2019-05-03T08:42:04.657Z,5.25
2019-05-03T08:44:35.166Z,3.58
2019-05-03T08:47:05.061Z,5.92
2019-05-03T08:49:34.808Z,2.05
2019-05-03T08:52:05.266Z,3.17
2019-05-03T08:54:34.688Z,3.87
2019-05-03T08:57:03.378Z,3.60
2019-05-03T08:59:32.734Z,9.83
2019-05-03T09:02:03.551Z,4.83
2019-05-03T09:04:37.409Z,2.92
2019-05-03T09:07:01.646Z,3.72
2019-05-03T09:10:12.346Z,4.30
2019-05-03T09:15:55.236Z,3.37
2019-05-03T09:18:25.603Z,3.15
2019-05-03T09:21:05.932Z,3.58
2019-05-03T09:23:35.675Z,5.15
2019-05-03T09:26:04.680Z,4.97
2019-05-03T09:28:34.882Z,7.17
2019-05-03T09:31:04.652Z,4.50
2019-05-03T09:33:33.109Z,3.70
2019-05-03T09:36:01.562Z,5.33
2019-05-03T09:38:30.009Z,4.67
2019-05-03T09:40:58.480Z,4.92
2019-05-03T09:43:26.912Z,6.90
2019-05-03T09:45:55.374Z,5.12
2019-05-03T09:48:25.501Z,8.85
2019-05-03T09:50:55.655Z,4.55
2019-05-03T09:53:25.838Z,4.53
2019-05-03T09:55:55.569Z,5.72
2019-05-03T09:58:26.181Z,6.80
2019-05-03T10:00:55.501Z,2.87
2019-05-03T10:03:24.197Z,2.70
2019-05-03T10:05:55.381Z,3.42
2019-05-03T10:08:25.467Z,3.90
2019-05-03T10:11:05.512Z,4.45
2019-05-03T10:13:35.507Z,3.17
2019-05-03T10:16:06.035Z,3.05
2019-05-03T10:18:35.234Z,6.62
2019-05-03T10:21:05.320Z,3.98
2019-05-03T10:23:35.892Z,3.45
2019-05-03T10:26:05.231Z,17.80
2019-05-03T10:28:33.784Z,4.30
2019-05-03T10:31:05.545Z,5.05
2019-05-03T10:33:35.611Z,3.85
2019-05-03T10:36:05.468Z,4.08
2019-05-03T10:38:34.145Z,2.08
2019-05-03T10:41:02.587Z,2.40
2019-05-03T10:43:31.220Z,4.03
2019-05-03T10:45:59.666Z,3.35
2019-05-03T10:48:28.132Z,5.50
2019-05-03T10:50:56.804Z,3.02
2019-05-03T10:53:29.686Z,3.67
2019-05-03T10:56:22.601Z,2.75
2019-05-03T10:58:49.334Z,5.55
2019-05-03T11:01:19.404Z,2.45
2019-05-03T11:03:47.880Z,4.35
2019-05-03T11:06:16.297Z,5.25
2019-05-03T11:08:45.134Z,4.50
2019-05-03T11:11:35.280Z,9.13
2019-05-03T11:14:05.426Z,3.20
2019-05-03T11:16:35.176Z,8.68
2019-05-03T11:19:05.479Z,4.95
2019-05-03T11:21:34.789Z,4.92
2019-05-03T11:24:03.448Z,3.62
2019-05-03T11:26:34.704Z,2.70
2019-05-03T11:29:02.554Z,3.87
2019-05-03T11:31:57.469Z,14.25
2019-05-03T11:34:30.547Z,28.77
2019-05-03T11:37:09.533Z,5.03
2019-05-03T11:39:37.994Z,4.12
2019-05-03T11:48:38.283Z,2.10
2019-05-03T11:54:25.021Z,3.05
2019-05-03T11:56:55.465Z,4.50
2019-05-03T12:12:10.592Z,21.48
2019-05-03T12:15:06.915Z,14.50
2019-05-03T12:18:49.379Z,9.60
2019-05-03T12:21:07.550Z,8.25
2019-05-03T12:23:35.691Z,7.05
2019-05-03T12:26:06.249Z,5.85
2019-05-03T12:28:31.226Z,5.70
2019-05-03T12:30:59.413Z,4.10
2019-05-03T12:33:26.924Z,5.72
2019-05-03T12:35:55.232Z,7.17
2019-05-03T12:38:25.340Z,5.85
2019-05-03T12:40:51.726Z,5.25
2019-05-03T12:43:19.130Z,6.30
2019-05-03T12:45:46.474Z,7.55
2019-05-03T12:48:15.493Z,33.67
2019-05-03T12:50:45.634Z,60.78
2019-05-03T12:53:12.003Z,67.10
2019-05-03T12:55:39.374Z,35.03
2019-05-03T12:58:06.742Z,25.32
2019-05-03T13:00:35.742Z,25.90
2019-05-03T13:03:07.421Z,25.10
2019-05-03T13:05:35.584Z,19.40
2019-05-03T13:08:21.381Z,21.37
2019-05-03T13:10:48.761Z,22.35
2019-05-03T13:13:16.108Z,20.23
2019-05-03T13:15:43.482Z,17.45
2019-05-03T13:18:10.924Z,14.07
2019-05-03T13:20:38.292Z,14.47
2019-05-03T13:23:05.638Z,13.20
2019-05-03T13:25:33.050Z,16.25
2019-05-03T13:28:00.473Z,11.90
2019-05-03T13:30:27.850Z,12.85
2019-05-03T13:32:55.193Z,13.35
2019-05-03T13:35:22.553Z,11.90
2019-05-03T13:37:49.894Z,11.12
2019-05-03T13:40:17.265Z,11.93
2019-05-03T13:42:56.066Z,218.48
2019-05-03T13:45:13.650Z,588.60
2019-05-03T13:47:41.024Z,331.85
2019-05-03T13:50:08.423Z,577.58
2019-05-03T13:52:35.765Z,516.62
2019-05-03T13:55:05.279Z,498.97
2019-05-03T13:57:32.521Z,425.83
2019-05-03T13:59:59.898Z,345.80
2019-05-03T14:02:27.261Z,369.45
2019-05-03T14:04:55.605Z,320.35
2019-05-03T14:07:23.097Z,312.20
2019-05-03T14:09:50.489Z,292.98
2019-05-03T14:12:17.947Z,293.58
2019-05-03T14:14:55.965Z,274.27
2019-05-03T14:17:25.273Z,270.20
2019-05-03T14:19:55.354Z,270.40
2019-05-03T14:22:24.889Z,871.63
2019-05-03T14:24:52.484Z,702.70
2019-05-03T14:27:19.810Z,130.97
2019-05-03T14:29:47.168Z,242.93
2019-05-03T14:32:25.424Z,225.47
2019-05-03T14:34:45.377Z,213.72
2019-05-03T14:37:12.615Z,202.95
2019-05-03T14:39:39.984Z,196.05
2019-05-03T14:42:07.329Z,168.95
2019-05-03T14:44:35.752Z,173.28
2019-05-03T14:47:05.606Z,186.55
2019-05-03T14:49:32.273Z,158.52
2019-05-03T14:51:59.645Z,163.32
2019-05-03T14:54:28.695Z,177.22
2019-05-03T14:58:45.731Z,219.85
2019-05-03T15:01:20.751Z,188.50
2019-05-03T15:03:48.082Z,176.87
2019-05-03T15:06:15.579Z,177.78
2019-05-03T15:08:43.014Z,171.25
2019-05-03T15:11:10.373Z,172.00
2019-05-03T15:13:38.885Z,155.95
2019-05-03T15:16:06.414Z,154.12
2019-05-03T15:18:34.845Z,147.17
2019-05-03T15:21:02.434Z,155.70
2019-05-03T15:23:29.814Z,144.25
2019-05-03T15:25:57.170Z,139.00
2019-05-03T15:28:25.241Z,136.75
2019-05-03T15:30:52.669Z,134.15
2019-05-03T15:33:20.094Z,125.42
2019-05-03T15:35:47.478Z,117.53
2019-05-03T15:38:14.861Z,119.25
2019-05-03T15:40:42.223Z,116.55
2019-05-03T15:43:20.158Z,113.97
2019-05-03T15:45:49.343Z,102.62
2019-05-03T15:48:21.342Z,95.12
2019-05-03T15:50:49.877Z,99.83
2019-05-03T15:53:17.261Z,101.40
2019-05-03T15:55:44.628Z,82.50
2019-05-03T15:58:11.997Z,88.62
2019-05-03T16:00:39.336Z,66.85
2019-05-03T16:03:10.493Z,71.55
2019-05-03T16:05:35.740Z,70.08
2019-05-03T16:08:04.580Z,66.42
2019-05-03T16:10:32.153Z,74.77
2019-05-03T16:12:59.529Z,68.12
2019-05-03T16:15:26.874Z,65.70
2019-05-03T16:17:54.765Z,57.80
2019-05-03T16:20:22.199Z,62.43
2019-05-03T16:22:49.577Z,52.05
2019-05-03T16:25:16.931Z,58.10
2019-05-03T16:27:47.307Z,54.80
2019-05-03T16:30:36.604Z,53.65
2019-05-03T16:33:04.676Z,46.45
2019-05-03T16:35:32.127Z,39.42
2019-05-03T16:37:59.609Z,94.62
2019-05-03T16:40:26.974Z,115.62
2019-05-03T16:42:54.340Z,79.12
2019-05-03T16:45:21.716Z,88.97
2019-05-03T16:47:49.110Z,83.40
2019-05-03T16:50:16.461Z,73.65
2019-05-03T16:52:45.529Z,75.85
2019-05-03T16:55:16.145Z,52.23
2019-05-03T16:57:44.275Z,52.17
2019-05-03T17:00:11.750Z,50.10
2019-05-03T17:02:39.127Z,50.30
2019-05-03T17:05:17.950Z,45.45
2019-05-03T17:08:04.608Z,45.03
2019-05-03T17:10:36.705Z,48.33
2019-05-03T17:13:05.512Z,43.85
2019-05-03T17:15:32.920Z,39.55
2019-05-03T17:18:00.290Z,40.65
2019-05-03T17:20:27.639Z,39.85
2019-05-03T17:22:55.515Z,40.05
2019-05-03T17:25:24.550Z,302.48
2019-05-03T17:27:51.974Z,541.27
2019-05-03T17:30:19.447Z,1390.75
2019-05-03T17:32:46.792Z,728.48
2019-05-03T17:35:14.576Z,139.37
2019-05-03T17:37:41.947Z,48.98
2019-05-03T17:40:16.922Z,33.67
2019-05-03T17:43:02.716Z,18.42
2019-05-03T17:45:45.422Z,18.90
2019-05-03T17:48:14.926Z,14.50
2019-05-03T17:50:41.918Z,14.03
2019-05-03T17:53:17.284Z,13.10
2019-05-03T17:55:46.278Z,18.05
2019-05-03T17:58:15.302Z,13.45
2019-05-03T18:00:46.965Z,9.60
2019-05-03T18:03:15.198Z,11.08
2019-05-03T18:05:53.482Z,8.93
2019-05-03T18:08:41.033Z,10.40
2019-05-03T18:11:10.009Z,11.18
2019-05-03T18:13:37.400Z,10.40
2019-05-03T18:16:04.839Z,11.83
2019-05-03T18:18:32.380Z,9.65
2019-05-03T18:20:59.749Z,23.35
2019-05-03T18:23:27.236Z,114.32
2019-05-03T18:25:54.872Z,130.12
2019-05-03T18:28:22.357Z,184.82
2019-05-03T18:30:49.734Z,29.98
2019-05-03T18:33:17.153Z,14.00
2019-05-03T18:35:44.535Z,28.50
2019-05-03T18:38:11.871Z,10.58
2019-05-03T18:40:39.222Z,8.58
2019-05-03T18:43:20.479Z,7.80
2019-05-03T18:45:55.797Z,10.08
2019-05-03T18:48:26.521Z,8.05
2019-05-03T18:50:54.753Z,17.05
2019-05-03T18:53:22.287Z,7.60
2019-05-03T18:55:49.665Z,7.83
2019-05-03T18:58:16.998Z,8.28
2019-05-03T19:00:44.503Z,10.95
2019-05-03T19:03:11.877Z,5.33
2019-05-03T19:05:45.226Z,6.28
2019-05-03T19:08:15.367Z,11.88
2019-05-03T19:10:55.171Z,8.25
2019-05-03T19:13:41.466Z,9.25
2019-05-03T19:16:21.877Z,9.45
2019-05-03T19:18:49.250Z,12.75
2019-05-03T19:21:16.634Z,12.07
2019-05-03T19:23:44.822Z,7.97
2019-05-03T19:26:14.382Z,10.08
2019-05-03T19:28:41.330Z,14.13
2019-05-03T19:31:08.765Z,12.60
2019-05-03T19:33:37.297Z,16.27
2019-05-03T19:36:04.937Z,13.08
2019-05-03T19:38:32.283Z,13.30
2019-05-03T19:40:59.674Z,9.70
2019-05-03T19:43:27.271Z,10.70
2019-05-03T19:45:54.710Z,12.58
2019-05-03T19:48:22.053Z,102.25
2019-05-03T19:50:49.421Z,34.85
2019-05-03T19:53:27.533Z,35.50
2019-05-03T19:55:55.369Z,27.07
2019-05-03T19:58:24.762Z,37.58
2019-05-03T20:01:05.711Z,17.45
2019-05-03T20:03:35.250Z,21.90
2019-05-03T20:06:22.593Z,23.22
2019-05-03T20:09:00.873Z,29.23
2019-05-03T20:11:28.249Z,19.50
2019-05-03T20:13:56.597Z,30.40
2019-05-03T20:16:23.997Z,24.15
2019-05-03T20:18:51.387Z,30.20
2019-05-03T20:21:18.793Z,29.87
2019-05-03T20:23:47.105Z,33.13
2019-05-03T20:26:15.104Z,36.05
2019-05-03T20:28:44.445Z,21.95
2019-05-03T20:31:11.656Z,18.23
2019-05-03T20:33:39.169Z,25.12
2019-05-03T20:36:06.546Z,25.57
2019-05-03T20:38:33.930Z,22.42
2019-05-03T20:41:01.253Z,24.77
2019-05-03T20:43:39.285Z,28.17
2019-05-03T20:46:10.502Z,23.10
2019-05-03T20:48:37.985Z,33.23
2019-05-03T20:51:05.625Z,21.25
2019-05-03T20:53:34.447Z,25.92
2019-05-03T20:56:02.098Z,22.52
2019-05-03T20:58:29.480Z,23.32
2019-05-03T21:00:57.092Z,26.35
2019-05-03T21:03:24.779Z,19.98
2019-05-03T21:05:52.508Z,20.62
2019-05-03T21:08:19.898Z,24.90
2019-05-03T21:10:47.504Z,15.95
2019-05-03T21:13:14.909Z,16.23
2019-05-03T21:15:56.164Z,20.70
2019-05-03T21:18:28.169Z,13.38
2019-05-03T21:20:57.130Z,13.62
2019-05-03T21:23:26.147Z,18.15
2019-05-03T21:26:13.368Z,10.80
2019-05-03T21:28:38.821Z,15.85
2019-05-03T21:31:06.186Z,18.52
2019-05-03T21:33:35.365Z,14.30
2019-05-03T21:36:04.678Z,16.70
2019-05-03T21:38:31.845Z,30.30
2019-05-03T21:40:59.269Z,674.65
2019-05-03T21:43:26.790Z,587.58
2019-05-03T21:45:55.882Z,522.23
2019-05-03T21:48:28.137Z,543.48
2019-05-03T21:50:55.634Z,529.55
2019-05-03T21:53:25.019Z,492.77
2019-05-03T21:55:52.365Z,346.93
2019-05-03T21:58:19.797Z,392.18
2019-05-03T22:00:54.796Z,366.93
2019-05-03T22:03:22.177Z,319.23
2019-05-03T22:05:54.957Z,324.77
2019-05-03T22:08:18.564Z,343.88
2019-05-03T22:10:45.917Z,331.52
2019-05-03T22:13:15.324Z,324.77
2019-05-03T22:15:44.482Z,322.10
2019-05-03T22:18:25.802Z,313.12
2019-05-03T22:20:55.028Z,313.37
2019-05-03T22:23:36.710Z,301.70
2019-05-03T22:26:05.128Z,299.05
2019-05-03T22:28:32.534Z,298.77
2019-05-03T22:30:59.916Z,279.05
2019-05-03T22:33:27.296Z,276.05
2019-05-03T22:36:07.575Z,262.82
2019-05-03T22:38:24.264Z,267.82
2019-05-03T22:40:51.785Z,265.55
2019-05-03T22:43:19.165Z,258.45
2019-05-03T22:45:46.707Z,247.48
2019-05-03T22:48:14.999Z,246.35
2019-05-03T22:50:42.372Z,243.95
2019-05-03T22:53:09.730Z,238.12
2019-05-03T22:55:37.194Z,239.40
2019-05-03T22:58:05.102Z,231.13
2019-05-03T23:00:32.912Z,218.95
2019-05-03T23:03:00.262Z,223.97
2019-05-03T23:05:27.644Z,220.80
2019-05-03T23:07:55.334Z,211.90
2019-05-03T23:10:22.766Z,210.10
2019-05-03T23:12:50.231Z,203.92
2019-05-03T23:15:17.605Z,197.43
2019-05-03T23:17:45.184Z,197.80
2019-05-03T23:20:17.241Z,192.25
2019-05-03T23:22:45.570Z,186.97
2019-05-03T23:25:14.417Z,177.35
2019-05-03T23:27:41.837Z,179.95
2019-05-03T23:30:09.212Z,174.68
2019-05-03T23:32:36.577Z,172.70
2019-05-03T23:35:05.076Z,174.25
2019-05-03T23:37:34.606Z,170.40
2019-05-03T23:40:02.159Z,166.95
2019-05-03T23:42:30.133Z,162.62
2019-05-03T23:44:57.459Z,158.05
2019-05-03T23:47:38.586Z,159.10
2019-05-03T23:50:07.173Z,152.50
2019-05-03T23:52:35.285Z,151.63
2019-05-03T23:55:05.756Z,147.62
2019-05-03T23:57:35.552Z,148.70
